Time;durP1;ratioP1;P1;durP2;ratioP2;P2;SDS_P1;SDS_P2;PMS_P1;PMS_P2;Temp;Humidity;BMP_temperature;BMP_pressure;BME280_temperature;BME280_humidity;BME280_pressure;Samples;Min_cycle;Max_cycle;Signal;HPM_P1;HPM_P2
2022/10/20 00:01:29;;;;;;;7.13;4.80;;;8.60;99.90;;;;;;5092230;28;20693;-80
2022/10/20 00:04:18;;;;;;;6.95;4.82;;;8.70;99.90;;;;;;5080444;28;20216;-79
2022/10/20 00:07:07;;;;;;;7.28;4.80;;;8.60;99.90;;;;;;5087971;28;20223;-79
2022/10/20 00:09:57;;;;;;;8.18;4.90;;;8.70;99.90;;;;;;5098406;28;20211;-80
2022/10/20 00:12:46;;;;;;;6.82;4.45;;;8.60;99.90;;;;;;5084285;28;20690;-80
2022/10/20 00:15:35;;;;;;;7.70;4.40;;;8.60;99.90;;;;;;5081376;28;20235;-81
2022/10/20 00:18:24;;;;;;;7.05;5.00;;;8.50;99.90;;;;;;5075506;28;20322;-82
2022/10/20 00:21:16;;;;;;;8.13;4.90;;;8.60;99.90;;;;;;5087617;27;20211;-82
2022/10/20 00:24:05;;;;;;;7.30;4.83;;;8.50;99.90;;;;;;5095037;28;20266;-81
2022/10/20 00:26:55;;;;;;;9.60;6.60;;;8.40;99.90;;;;;;5091968;28;20234;-82
2022/10/20 00:29:43;;;;;;;10.40;8.10;;;8.50;99.90;;;;;;5083571;28;20288;-82
2022/10/20 00:32:32;;;;;;;9.13;7.20;;;8.50;99.90;;;;;;5081230;28;20246;-82
2022/10/20 00:35:22;;;;;;;10.77;8.02;;;8.50;99.90;;;;;;5082362;28;20650;-82
2022/10/20 00:38:10;;;;;;;10.83;8.37;;;8.40;99.90;;;;;;5095377;28;20300;-78
2022/10/20 00:41:01;;;;;;;9.73;7.47;;;8.50;99.90;;;;;;5080941;28;20220;-78
2022/10/20 00:43:53;;;;;;;13.53;7.20;;;8.50;99.90;;;;;;5092347;28;20260;-78
2022/10/20 00:46:43;;;;;;;9.90;6.93;;;8.40;99.90;;;;;;5087855;28;20231;-79
2022/10/20 00:49:31;;;;;;;9.93;6.03;;;8.40;99.90;;;;;;5066291;28;20230;-79
2022/10/20 00:52:22;;;;;;;10.18;5.90;;;8.40;99.90;;;;;;5046300;28;20722;-78
2022/10/20 00:55:15;;;;;;;9.57;5.13;;;8.30;99.90;;;;;;5074415;28;20610;-79
2022/10/20 00:58:04;;;;;;;8.47;5.10;;;8.40;99.90;;;;;;5095815;28;20258;-79
2022/10/20 01:00:59;;;;;;;8.15;5.13;;;8.40;99.90;;;;;;5081819;28;20222;-79
2022/10/20 01:03:51;;;;;;;7.57;5.40;;;8.40;99.90;;;;;;5084593;28;20234;-78
2022/10/20 01:06:40;;;;;;;13.27;5.88;;;8.40;99.90;;;;;;5083610;28;20226;-79
2022/10/20 01:09:29;;;;;;;9.60;5.77;;;8.40;99.90;;;;;;5079501;28;20296;-78
2022/10/20 01:12:30;;;;;;;9.57;5.93;;;8.40;99.90;;;;;;5080292;28;20234;-78
2022/10/20 01:15:27;;;;;;;9.77;5.30;;;8.40;99.90;;;;;;5087297;28;20226;-79
2022/10/20 01:18:26;;;;;;;9.50;5.07;;;8.40;99.90;;;;;;5082741;28;20230;-79
2022/10/20 01:21:47;;;;;;;10.63;5.60;;;8.40;99.90;;;;;;5081844;28;20243;-80
2022/10/20 01:25:00;;;;;;;9.90;5.47;;;8.30;99.90;;;;;;5091015;28;20317;-81
2022/10/20 01:27:55;;;;;;;8.20;5.40;;;8.30;99.90;;;;;;5100369;28;20226;-81
2022/10/20 01:30:49;;;;;;;9.20;5.50;;;8.30;99.90;;;;;;5071895;28;20401;-83
2022/10/20 01:33:44;;;;;;;10.30;5.57;;;8.30;99.90;;;;;;5086420;28;20226;-82
2022/10/20 01:36:38;;;;;;;9.67;5.07;;;8.30;99.90;;;;;;5070652;28;20238;-81
2022/10/20 01:39:34;;;;;;;9.77;5.40;;;8.30;99.90;;;;;;5079615;28;20224;-82
2022/10/20 01:42:25;;;;;;;9.10;5.03;;;8.20;99.90;;;;;;5084304;28;20253;-80
2022/10/20 01:45:18;;;;;;;9.47;5.23;;;8.20;99.90;;;;;;5068465;28;20728;-79
2022/10/20 01:48:09;;;;;;;7.13;4.97;;;8.10;99.90;;;;;;5071438;28;20214;-81
2022/10/20 01:51:00;;;;;;;7.77;4.73;;;8.10;99.90;;;;;;5090081;28;20230;-82
2022/10/20 01:53:48;;;;;;;8.77;5.17;;;8.20;99.90;;;;;;5071675;28;20227;-81
2022/10/20 01:56:42;;;;;;;9.97;5.03;;;8.20;99.90;;;;;;5085821;28;20220;-82
2022/10/20 01:59:54;;;;;;;7.33;4.57;;;8.20;99.90;;;;;;5050218;28;20231;-81
2022/10/20 02:03:04;;;;;;;8.00;5.27;;;8.10;99.90;;;;;;5083326;28;20683;-81
2022/10/20 02:06:08;;;;;;;7.47;4.93;;;8.00;99.90;;;;;;5086579;28;20235;-81
2022/10/20 02:08:59;;;;;;;8.57;4.90;;;8.00;99.90;;;;;;5086070;28;20234;-81
2022/10/20 02:11:52;;;;;;;6.83;4.70;;;8.10;99.90;;;;;;5067172;28;20304;-80
2022/10/20 02:14:43;;;;;;;7.60;5.40;;;8.10;99.90;;;;;;5083258;28;20242;-79
2022/10/20 02:17:34;;;;;;;7.10;4.83;;;8.20;99.90;;;;;;5083818;28;20254;-80
2022/10/20 02:20:24;;;;;;;6.30;4.77;;;8.10;99.90;;;;;;5080530;28;20231;-80
2022/10/20 02:23:13;;;;;;;7.93;5.50;;;8.20;99.90;;;;;;5071061;28;20223;-81
2022/10/20 02:26:03;;;;;;;7.77;5.20;;;8.10;99.90;;;;;;5085939;28;20222;-80
2022/10/20 02:28:57;;;;;;;11.27;5.43;;;8.00;99.90;;;;;;5067871;28;20799;-80
2022/10/20 02:31:47;;;;;;;8.17;5.33;;;8.10;99.90;;;;;;5078822;28;20228;-80
2022/10/20 02:34:35;;;;;;;10.87;5.50;;;8.00;99.90;;;;;;5082835;28;20231;-80
2022/10/20 02:37:31;;;;;;;11.07;5.50;;;8.10;99.90;;;;;;5080280;28;20251;-81
2022/10/20 02:40:21;;;;;;;12.47;5.97;;;8.00;99.90;;;;;;5090929;28;20309;-81
2022/10/20 02:43:10;;;;;;;9.20;5.23;;;8.00;99.90;;;;;;5088528;28;20747;-82
2022/10/20 02:45:59;;;;;;;9.53;5.57;;;8.10;99.90;;;;;;5086244;28;20228;-80
2022/10/20 02:48:48;;;;;;;9.60;5.50;;;8.10;99.90;;;;;;5076253;28;20222;-82
2022/10/20 02:51:36;;;;;;;8.07;5.33;;;8.10;99.90;;;;;;5065943;28;20232;-80
2022/10/20 02:54:27;;;;;;;10.13;5.53;;;8.10;99.90;;;;;;5089616;28;20344;-80
2022/10/20 02:57:16;;;;;;;9.43;5.47;;;8.00;99.90;;;;;;5078398;28;20535;-82
2022/10/20 03:00:06;;;;;;;7.97;5.10;;;7.90;99.90;;;;;;5086552;28;20223;-80
2022/10/20 03:02:54;;;;;;;7.87;5.33;;;7.90;99.90;;;;;;5085763;28;20238;-81
2022/10/20 03:05:44;;;;;;;9.70;5.90;;;8.00;99.90;;;;;;5068351;28;20327;-82
2022/10/20 03:08:32;;;;;;;11.33;6.20;;;8.00;99.90;;;;;;5092218;28;20246;-82
2022/10/20 03:11:22;;;;;;;10.60;6.13;;;8.00;99.90;;;;;;5067386;28;20253;-82
2022/10/20 03:14:12;;;;;;;9.37;5.73;;;7.90;99.90;;;;;;5066830;28;20325;-82
2022/10/20 03:17:00;;;;;;;9.23;6.30;;;7.90;99.90;;;;;;5081795;28;20238;-82
2022/10/20 03:19:49;;;;;;;9.40;5.80;;;7.90;99.90;;;;;;5076552;28;20226;-82
2022/10/20 03:22:38;;;;;;;10.47;5.77;;;7.90;99.90;;;;;;5089161;28;20234;-82
2022/10/20 03:25:27;;;;;;;9.70;5.83;;;7.70;99.90;;;;;;5079670;28;20220;-82
2022/10/20 03:28:18;;;;;;;10.83;6.80;;;7.70;99.90;;;;;;5079365;28;20226;-83
2022/10/20 03:31:06;;;;;;;12.00;6.37;;;7.80;99.90;;;;;;5082723;28;20215;-82
2022/10/20 03:33:55;;;;;;;9.27;6.10;;;7.70;99.90;;;;;;5094301;28;20249;-82
2022/10/20 03:36:44;;;;;;;11.40;6.10;;;7.70;99.90;;;;;;5092579;28;20234;-82
2022/10/20 03:39:33;;;;;;;9.83;6.50;;;7.60;99.90;;;;;;5087695;28;20233;-83
2022/10/20 03:42:21;;;;;;;9.47;6.30;;;7.70;99.90;;;;;;5067665;28;20592;-83
2022/10/20 03:45:12;;;;;;;12.23;6.27;;;7.70;99.90;;;;;;5079822;28;20215;-82
2022/10/20 03:48:05;;;;;;;13.47;6.40;;;7.70;99.90;;;;;;5080688;28;20713;-81
2022/10/20 03:50:54;;;;;;;10.13;6.13;;;7.60;99.90;;;;;;5078536;28;20227;-80
2022/10/20 03:53:43;;;;;;;10.70;6.10;;;7.50;99.90;;;;;;5076322;28;20249;-80
2022/10/20 03:56:36;;;;;;;13.33;6.70;;;7.60;99.90;;;;;;5058030;28;20222;-80
2022/10/20 03:59:24;;;;;;;12.77;6.63;;;7.50;99.90;;;;;;5084374;28;20264;-82
2022/10/20 04:02:29;;;;;;;10.90;6.47;;;7.50;99.90;;;;;;5088115;28;20278;-82
2022/10/20 04:05:20;;;;;;;12.77;6.60;;;7.40;99.90;;;;;;5068386;28;20598;-82
2022/10/20 04:08:09;;;;;;;10.30;6.30;;;7.40;99.90;;;;;;5083489;28;20235;-82
2022/10/20 04:10:58;;;;;;;12.43;6.93;;;7.40;99.90;;;;;;5088118;28;20226;-83
2022/10/20 04:13:47;;;;;;;10.40;7.10;;;7.30;99.90;;;;;;5079918;28;20219;-85
2022/10/20 04:16:36;;;;;;;11.23;7.10;;;7.20;99.90;;;;;;5082250;28;20230;-84
2022/10/20 04:19:26;;;;;;;9.30;6.20;;;7.30;99.90;;;;;;5081594;28;20696;-82
2022/10/20 04:22:15;;;;;;;12.17;6.80;;;7.40;99.90;;;;;;5063750;28;20228;-82
2022/10/20 04:25:04;;;;;;;10.03;6.73;;;7.40;99.90;;;;;;5091233;28;20228;-82
2022/10/20 04:27:52;;;;;;;15.97;7.00;;;7.40;99.90;;;;;;5065581;28;20732;-82
2022/10/20 04:30:42;;;;;;;13.23;6.67;;;7.30;99.90;;;;;;5054891;28;20706;-82
2022/10/20 04:33:31;;;;;;;9.10;6.17;;;7.20;99.90;;;;;;5054305;28;20703;-81
2022/10/20 04:36:21;;;;;;;9.97;6.50;;;7.20;99.90;;;;;;5043101;28;20220;-82
2022/10/20 04:39:10;;;;;;;12.37;7.20;;;7.10;99.90;;;;;;5065540;28;20600;-81
2022/10/20 04:42:00;;;;;;;14.80;7.27;;;7.00;99.90;;;;;;5060740;28;20863;-80
2022/10/20 04:44:48;;;;;;;12.97;7.47;;;7.20;99.90;;;;;;5042857;28;20596;-81
2022/10/20 04:47:37;;;;;;;12.87;7.60;;;7.10;99.90;;;;;;5067650;28;20319;-81
2022/10/20 04:50:26;;;;;;;14.17;7.47;;;7.20;99.90;;;;;;5071701;28;20326;-80
2022/10/20 04:53:28;;;;;;;13.20;7.77;;;7.10;99.90;;;;;;5071872;28;20686;-79
2022/10/20 04:56:19;;;;;;;15.00;8.10;;;7.10;99.90;;;;;;5058903;28;20292;-80
2022/10/20 04:59:09;;;;;;;12.50;7.47;;;7.10;99.90;;;;;;5052516;28;20222;-80
2022/10/20 05:02:01;;;;;;;16.73;7.93;;;7.10;99.90;;;;;;5054743;28;20776;-78
2022/10/20 05:04:50;;;;;;;12.87;7.83;;;7.20;99.90;;;;;;5045460;28;20224;-79
2022/10/20 05:07:38;;;;;;;14.73;7.80;;;6.90;99.90;;;;;;5046481;28;20216;-80
2022/10/20 05:10:29;;;;;;;13.93;7.50;;;7.00;99.90;;;;;;5063275;28;20231;-81
2022/10/20 05:13:24;;;;;;;14.97;7.50;;;7.10;99.90;;;;;;5051736;28;20235;-81
2022/10/20 05:16:13;;;;;;;15.33;8.17;;;7.00;99.90;;;;;;5062987;28;20762;-80
2022/10/20 05:19:02;;;;;;;15.73;8.80;;;7.10;99.90;;;;;;5052305;28;20216;-84
2022/10/20 05:21:50;;;;;;;18.30;8.60;;;7.00;99.90;;;;;;5054030;28;20239;-81
2022/10/20 05:24:39;;;;;;;14.07;8.40;;;7.00;99.90;;;;;;5070148;28;20318;-82
2022/10/20 05:27:29;;;;;;;16.00;8.87;;;7.10;99.90;;;;;;5038868;28;20220;-84
2022/10/20 05:30:18;;;;;;;17.40;8.50;;;7.10;99.90;;;;;;5066086;27;20364;-80
2022/10/20 05:33:07;;;;;;;16.83;8.30;;;7.10;99.90;;;;;;5103605;28;20233;-81
2022/10/20 05:35:56;;;;;;;18.17;8.23;;;7.10;99.90;;;;;;5103207;28;20223;-81
2022/10/20 05:38:44;;;;;;;18.97;10.40;;;7.00;99.90;;;;;;5088076;27;20231;-81
2022/10/20 05:41:34;;;;;;;16.10;9.00;;;7.00;99.90;;;;;;5090463;27;20700;-80
2022/10/20 05:44:28;;;;;;;21.90;10.43;;;7.00;99.90;;;;;;5096553;28;20298;-81
2022/10/20 05:47:16;;;;;;;19.77;10.23;;;7.00;99.90;;;;;;5101572;28;20278;-84
2022/10/20 05:50:06;;;;;;;19.43;10.97;;;6.90;99.90;;;;;;5076416;28;20234;-79
2022/10/20 05:52:55;;;;;;;20.13;10.93;;;6.80;99.90;;;;;;5097987;27;20713;-79
2022/10/20 05:55:43;;;;;;;22.80;12.43;;;6.80;99.90;;;;;;5060525;28;20971;-79
2022/10/20 05:58:32;;;;;;;25.60;12.77;;;6.90;99.90;;;;;;5084097;28;20226;-79
2022/10/20 06:01:24;;;;;;;26.47;13.07;;;6.80;99.90;;;;;;5073884;28;20218;-79
2022/10/20 06:04:15;;;;;;;24.67;13.30;;;7.00;99.90;;;;;;5055545;28;20221;-79
2022/10/20 06:07:05;;;;;;;26.53;12.93;;;7.00;99.90;;;;;;5067734;28;20219;-78
2022/10/20 06:09:54;;;;;;;28.73;13.17;;;7.10;99.90;;;;;;5084977;28;20654;-78
2022/10/20 06:12:43;;;;;;;29.33;13.40;;;7.10;99.90;;;;;;5068661;28;20244;-78
2022/10/20 06:15:32;;;;;;;29.50;13.10;;;7.20;99.90;;;;;;5066488;28;20227;-78
2022/10/20 06:18:22;;;;;;;26.40;13.90;;;7.20;99.90;;;;;;5088429;28;20750;-80
2022/10/20 06:21:13;;;;;;;30.27;14.27;;;7.10;99.90;;;;;;5073856;28;20230;-78
2022/10/20 06:24:03;;;;;;;31.87;14.80;;;7.10;99.90;;;;;;5085342;28;20241;-76
2022/10/20 06:26:52;;;;;;;48.53;14.17;;;7.20;99.90;;;;;;5083879;28;20330;-79
2022/10/20 06:29:40;;;;;;;34.53;13.53;;;7.20;99.90;;;;;;5082766;28;20229;-77
2022/10/20 06:32:29;;;;;;;68.90;18.17;;;7.10;99.90;;;;;;5083053;28;20230;-77
2022/10/20 06:35:20;;;;;;;48.50;15.77;;;7.30;99.90;;;;;;5083288;28;20219;-78
2022/10/20 06:38:09;;;;;;;39.60;14.77;;;7.40;99.90;;;;;;5085294;28;20233;-81
2022/10/20 06:41:01;;;;;;;29.70;13.90;;;7.50;99.90;;;;;;5085331;28;20227;-81
2022/10/20 06:43:53;;;;;;;35.47;13.93;;;7.40;99.90;;;;;;5061043;28;20749;-81
2022/10/20 06:46:42;;;;;;;29.70;13.77;;;7.40;99.90;;;;;;5077287;28;20233;-82
2022/10/20 06:49:31;;;;;;;28.07;13.47;;;7.40;99.90;;;;;;5080225;28;20252;-80
2022/10/20 06:52:21;;;;;;;27.60;13.47;;;7.50;99.90;;;;;;5082744;28;20251;-80
2022/10/20 06:55:10;;;;;;;25.53;13.07;;;7.60;99.90;;;;;;5081098;28;20214;-79
2022/10/20 06:57:59;;;;;;;119.70;21.90;;;7.70;99.90;;;;;;5079084;28;20233;-85
2022/10/20 07:00:47;;;;;;;132.37;20.83;;;7.60;99.90;;;;;;5094389;28;20235;-82
2022/10/20 07:03:37;;;;;;;54.53;16.30;;;7.60;99.90;;;;;;5080046;28;20223;-83
2022/10/20 07:06:28;;;;;;;36.27;14.63;;;7.60;99.90;;;;;;5092385;28;20239;-82
2022/10/20 07:09:20;;;;;;;26.80;14.07;;;7.60;99.90;;;;;;5078912;28;20227;-85
2022/10/20 07:12:08;;;;;;;28.80;15.00;;;7.70;99.90;;;;;;5083516;28;20230;-83
2022/10/20 07:14:57;;;;;;;26.73;13.97;;;7.80;99.90;;;;;;5069305;28;20225;-82
2022/10/20 07:17:47;;;;;;;27.47;13.73;;;7.90;99.90;;;;;;5078294;28;20238;-83
2022/10/20 07:20:36;;;;;;;26.53;13.83;;;7.90;99.90;;;;;;5087050;27;20225;-83
2022/10/20 07:23:25;;;;;;;33.43;14.40;;;7.90;99.90;;;;;;5067869;28;20223;-84
2022/10/20 07:26:18;;;;;;;25.73;12.90;;;8.00;99.90;;;;;;5086095;28;20235;-89
2022/10/20 07:29:07;;;;;;;24.17;13.33;;;8.00;99.90;;;;;;5078214;28;20308;-90
2022/10/20 07:31:56;;;;;;;24.23;13.50;;;8.10;99.90;;;;;;5106054;28;20222;-90
2022/10/20 07:34:48;;;;;;;25.70;12.87;;;8.00;99.90;;;;;;5091762;28;20214;-90
2022/10/20 07:37:37;;;;;;;24.00;14.13;;;7.90;99.90;;;;;;5091227;28;20229;-88
2022/10/20 07:40:27;;;;;;;24.67;13.90;;;8.00;99.90;;;;;;5113352;27;20216;-93
2022/10/20 07:43:17;;;;;;;27.90;13.70;;;8.10;99.90;;;;;;5124849;27;20223;-92
2022/10/20 07:46:06;;;;;;;29.23;13.30;;;8.20;99.90;;;;;;5097874;28;20219;-90
2022/10/20 07:48:55;;;;;;;28.13;13.70;;;8.30;99.90;;;;;;5095285;28;20224;-90
2022/10/20 07:51:59;;;;;;;24.50;13.37;;;8.40;99.90;;;;;;5094995;28;20221;-91
2022/10/20 07:54:47;;;;;;;24.03;13.37;;;8.40;99.90;;;;;;5112268;28;20215;-92
2022/10/20 07:57:36;;;;;;;22.67;13.23;;;8.50;99.90;;;;;;5096656;28;20222;-91
2022/10/20 08:00:26;;;;;;;28.30;13.90;;;8.50;99.90;;;;;;5075748;28;20235;-92
2022/10/20 08:03:15;;;;;;;25.57;13.13;;;8.70;99.90;;;;;;5099552;28;20232;-92
2022/10/20 08:06:04;;;;;;;23.47;13.10;;;8.60;99.90;;;;;;5076587;28;20226;-86
2022/10/20 08:08:53;;;;;;;26.50;13.60;;;8.70;99.90;;;;;;5086961;28;20238;-80
2022/10/20 08:11:42;;;;;;;25.07;12.83;;;8.80;99.90;;;;;;5073236;28;20337;-84
2022/10/20 08:14:33;;;;;;;22.90;13.73;;;8.80;99.90;;;;;;5081838;28;20238;-82
2022/10/20 08:17:25;;;;;;;24.70;13.53;;;8.90;99.90;;;;;;5091231;28;21669;-81
2022/10/20 08:20:14;;;;;;;23.83;13.67;;;9.00;99.90;;;;;;5103010;28;20219;-81
2022/10/20 08:23:04;;;;;;;25.57;13.20;;;9.10;99.90;;;;;;5094844;28;20226;-85
2022/10/20 08:25:56;;;;;;;23.57;12.20;;;9.00;99.90;;;;;;5089183;28;20295;-85
2022/10/20 08:28:45;;;;;;;18.67;11.47;;;9.20;99.90;;;;;;5096632;28;20233;-85
2022/10/20 08:31:33;;;;;;;22.57;10.87;;;9.40;99.90;;;;;;5096324;28;20249;-74
2022/10/20 08:34:24;;;;;;;32.40;16.73;;;9.60;99.90;;;;;;5093476;28;20230;-75
2022/10/20 08:37:13;;;;;;;25.83;11.93;;;9.90;99.90;;;;;;5073889;28;20219;-72
2022/10/20 08:40:02;;;;;;;24.27;11.83;;;10.20;99.90;;;;;;5072329;28;20238;-75
2022/10/20 08:42:51;;;;;;;30.57;12.70;;;10.40;99.90;;;;;;5076319;28;21174;-76
2022/10/20 08:45:40;;;;;;;23.20;11.60;;;10.60;99.90;;;;;;5072785;28;20234;-74
2022/10/20 08:48:34;;;;;;;21.35;11.25;;;10.60;99.90;;;;;;5072462;28;20850;-74
2022/10/20 08:51:25;;;;;;;25.90;11.20;;;10.60;99.90;;;;;;5082535;28;20230;-72
2022/10/20 08:54:16;;;;;;;20.30;10.85;;;10.70;99.90;;;;;;5090357;28;20330;-74
2022/10/20 08:57:15;;;;;;;19.17;12.18;;;10.70;99.90;;;;;;5076876;28;20211;-75
2022/10/20 09:00:14;;;;;;;17.63;10.93;;;10.80;99.90;;;;;;5080738;28;20235;-76
2022/10/20 09:03:13;;;;;;;20.15;11.20;;;10.90;99.90;;;;;;5075159;28;20236;-76
2022/10/20 09:06:08;;;;;;;20.80;11.52;;;11.00;99.90;;;;;;5070087;28;20879;-75
2022/10/20 09:09:00;;;;;;;18.80;11.23;;;11.00;99.90;;;;;;5071419;28;20277;-75
2022/10/20 09:11:49;;;;;;;26.23;13.68;;;11.10;99.90;;;;;;5059027;28;20220;-77
2022/10/20 09:14:38;;;;;;;24.77;13.95;;;11.10;99.90;;;;;;5075765;28;20220;-75
2022/10/20 09:17:27;;;;;;;24.70;13.40;;;11.20;99.90;;;;;;5085131;28;20215;-74
2022/10/20 09:20:22;;;;;;;28.42;13.88;;;11.20;99.90;;;;;;5082377;28;20219;-76
2022/10/20 09:23:13;;;;;;;21.98;13.50;;;11.20;99.90;;;;;;5079686;28;20223;-81
2022/10/20 09:26:34;;;;;;;25.00;13.38;;;11.10;99.90;;;;;;5083282;28;20219;-81
2022/10/20 09:29:44;;;;;;;19.90;11.50;;;10.90;99.90;;;;;;5072031;28;20216;-74
2022/10/20 09:32:34;;;;;;;22.83;10.80;;;10.90;99.90;;;;;;5079645;28;20215;-77
2022/10/20 09:35:40;;;;;;;16.95;10.93;;;10.90;99.90;;;;;;5086265;28;20214;-77
2022/10/20 09:38:31;;;;;;;19.98;10.07;;;10.80;99.90;;;;;;5087277;28;20298;-77
2022/10/20 09:41:22;;;;;;;21.98;10.45;;;10.70;99.90;;;;;;5083426;28;20228;-77
2022/10/20 09:44:22;;;;;;;17.50;10.10;;;10.70;99.90;;;;;;5083146;28;20695;-77
2022/10/20 09:47:13;;;;;;;17.75;9.32;;;10.60;99.90;;;;;;5082789;28;20211;-77
2022/10/20 09:50:04;;;;;;;17.67;9.40;;;10.50;99.90;;;;;;5092225;28;20223;-76
2022/10/20 09:52:54;;;;;;;19.80;11.00;;;10.60;99.90;;;;;;5102066;28;20227;-75
2022/10/20 09:55:47;;;;;;;25.30;15.55;;;10.80;99.90;;;;;;5087754;28;20246;-77
2022/10/20 09:58:40;;;;;;;27.85;15.40;;;11.00;99.90;;;;;;5084489;28;20231;-77
2022/10/20 10:01:31;;;;;;;28.17;14.35;;;11.20;99.90;;;;;;5086080;28;21326;-77
2022/10/20 10:04:32;;;;;;;19.92;12.57;;;11.30;99.90;;;;;;5092890;28;20306;-77
2022/10/20 10:07:31;;;;;;;21.30;12.15;;;11.40;99.90;;;;;;5097474;28;20219;-78
2022/10/20 10:10:26;;;;;;;19.55;12.63;;;11.50;99.90;;;;;;5082109;28;20222;-77
2022/10/20 10:13:26;;;;;;;15.48;10.38;;;11.50;99.90;;;;;;5079904;28;20231;-77
2022/10/20 10:16:17;;;;;;;18.00;10.77;;;11.40;99.90;;;;;;5083190;28;20231;-77
2022/10/20 10:19:13;;;;;;;22.33;11.43;;;11.50;99.90;;;;;;5075374;28;20231;-78
2022/10/20 10:22:04;;;;;;;32.15;11.43;;;11.60;99.90;;;;;;5091399;28;20261;-78
2022/10/20 10:24:55;;;;;;;20.00;9.93;;;11.60;99.90;;;;;;5068781;28;20226;-78
2022/10/20 10:27:59;;;;;;;15.30;10.43;;;11.70;99.90;;;;;;5075153;28;20227;-77
2022/10/20 10:30:48;;;;;;;15.60;10.55;;;11.80;99.90;;;;;;5078884;28;20231;-78
2022/10/20 10:33:37;;;;;;;10.70;6.00;;;11.80;99.90;;;;;;5088581;28;20547;-77
2022/10/20 10:36:32;;;;;;;7.20;4.35;;;11.80;99.90;;;;;;5074001;28;20215;-77
2022/10/20 10:39:21;;;;;;;9.50;3.85;;;11.70;99.90;;;;;;5087419;28;20220;-76
2022/10/20 10:42:34;;;;;;;5.38;3.15;;;11.80;99.90;;;;;;5086395;28;20650;-77
2022/10/20 10:45:41;;;;;;;8.95;3.22;;;11.70;99.90;;;;;;5085798;28;20234;-78
2022/10/20 10:49:03;;;;;;;4.57;2.78;;;11.90;99.90;;;;;;5086387;28;20219;-77
2022/10/20 10:52:05;;;;;;;3.90;2.40;;;11.90;99.90;;;;;;5072117;28;20323;-78
2022/10/20 10:55:02;;;;;;;3.75;2.50;;;11.80;99.90;;;;;;5070449;28;20222;-78
2022/10/20 10:58:02;;;;;;;4.10;2.42;;;11.80;99.90;;;;;;5074409;28;20659;-77
2022/10/20 11:01:00;;;;;;;3.40;2.40;;;11.90;99.90;;;;;;5069488;28;20230;-78
2022/10/20 11:04:13;;;;;;;7.88;3.08;;;11.80;99.90;;;;;;5070656;28;20779;-77
2022/10/20 11:07:09;;;;;;;7.35;2.70;;;12.00;99.90;;;;;;5085349;28;20254;-77
2022/10/20 11:10:05;;;;;;;10.25;2.80;;;12.00;99.90;;;;;;5065586;28;20536;-78
2022/10/20 11:13:28;;;;;;;5.90;2.80;;;12.10;99.90;;;;;;5073233;28;20216;-76
2022/10/20 11:16:31;;;;;;;4.22;2.35;;;12.20;99.90;;;;;;5072488;28;20705;-76
2022/10/20 11:19:43;;;;;;;4.53;2.35;;;12.20;99.90;;;;;;5081055;28;20203;-77
2022/10/20 11:22:43;;;;;;;8.98;2.47;;;12.30;99.90;;;;;;5084907;28;20228;-78
2022/10/20 11:25:37;;;;;;;3.75;2.30;;;12.40;99.90;;;;;;5115074;27;20707;-77
2022/10/20 11:28:31;;;;;;;5.78;2.25;;;12.30;99.90;;;;;;5101087;28;20226;-77
2022/10/20 11:31:26;;;;;;;3.03;1.90;;;12.30;99.90;;;;;;5088144;28;20226;-77
2022/10/20 11:34:21;;;;;;;4.47;2.50;;;12.10;99.90;;;;;;5098210;28;20770;-77
2022/10/20 11:37:17;;;;;;;6.53;3.22;;;11.80;99.90;;;;;;5106198;28;20218;-78
2022/10/20 11:40:20;;;;;;;8.52;2.70;;;11.80;99.90;;;;;;5085007;28;20338;-77
2022/10/20 11:43:17;;;;;;;4.47;2.10;;;11.70;99.90;;;;;;5088342;28;20241;-77
2022/10/20 11:46:10;;;;;;;6.35;2.15;;;11.50;99.90;;;;;;5087868;28;20303;-77
2022/10/20 11:48:59;;;;;;;4.45;2.40;;;11.30;99.90;;;;;;5101099;28;20230;-76
2022/10/20 11:52:21;;;;;;;7.72;1.83;;;11.40;99.90;;;;;;5087596;28;20223;-78
2022/10/20 11:55:42;;;;;;;5.78;2.20;;;11.30;99.90;;;;;;5080071;28;20870;-78
2022/10/20 11:58:52;;;;;;;4.75;2.55;;;11.30;99.90;;;;;;5061416;28;20572;-79
2022/10/20 12:01:58;;;;;;;5.47;1.88;;;11.40;99.90;;;;;;5042991;28;20228;-77
2022/10/20 12:05:16;;;;;;;2.97;1.90;;;11.40;99.90;;;;;;5084354;28;20286;-75
2022/10/20 12:08:36;;;;;;;3.67;2.00;;;11.50;99.90;;;;;;5082818;28;20632;-81
2022/10/20 12:11:31;;;;;;;6.88;1.90;;;11.50;99.90;;;;;;5087647;28;20223;-78
2022/10/20 12:14:27;;;;;;;6.47;2.00;;;11.40;99.90;;;;;;5081518;28;20234;-77
2022/10/20 12:17:34;;;;;;;2.85;1.63;;;11.60;99.90;;;;;;5078916;28;20239;-75
2022/10/20 12:20:54;;;;;;;4.97;1.92;;;11.70;99.90;;;;;;5089286;28;20245;-76
2022/10/20 12:24:03;;;;;;;5.20;2.22;;;11.60;99.90;;;;;;5084258;28;20810;-76
2022/10/20 12:27:24;;;;;;;8.68;2.20;;;11.40;99.90;;;;;;5076734;28;20219;-77
2022/10/20 12:30:44;;;;;;;2.97;1.80;;;11.60;99.90;;;;;;5088434;28;20227;-76
2022/10/20 12:33:39;;;;;;;3.15;1.80;;;11.70;99.90;;;;;;5082696;28;20674;-74
2022/10/20 12:36:38;;;;;;;5.63;1.70;;;11.60;99.90;;;;;;5103230;27;20219;-76
2022/10/20 12:39:30;;;;;;;4.38;1.60;;;11.60;99.90;;;;;;5104242;28;20380;-77
2022/10/20 12:42:22;;;;;;;3.08;1.50;;;11.80;99.90;;;;;;5085745;28;20252;-77
2022/10/20 12:45:36;;;;;;;3.03;1.80;;;11.70;99.90;;;;;;5091636;28;20705;-78
2022/10/20 12:48:26;;;;;;;3.45;1.60;;;11.60;99.90;;;;;;5098233;28;20233;-75
2022/10/20 12:51:25;;;;;;;3.30;1.50;;;11.70;99.90;;;;;;5090244;28;20223;-76
2022/10/20 12:54:22;;;;;;;4.03;1.60;;;11.80;99.90;;;;;;5104470;28;20531;-76
2022/10/20 12:57:28;;;;;;;3.97;1.50;;;11.70;99.90;;;;;;5101398;28;20226;-75
2022/10/20 13:01:04;;;;;;;4.82;1.52;;;11.90;99.90;;;;;;5102201;28;20226;-76
2022/10/20 13:03:54;;;;;;;3.55;1.70;;;11.90;99.90;;;;;;5043191;28;20397;-77
2022/10/20 13:06:43;;;;;;;2.38;1.55;;;11.80;99.90;;;;;;5043336;28;20241;-76
2022/10/20 13:09:52;;;;;;;3.95;1.67;;;11.90;99.90;;;;;;5077685;28;20567;-77
2022/10/20 13:12:40;;;;;;;2.95;1.70;;;11.90;99.90;;;;;;5087771;28;20725;-76
2022/10/20 13:15:32;;;;;;;4.60;1.60;;;11.80;99.90;;;;;;5087191;28;20270;-76
2022/10/20 13:18:27;;;;;;;2.90;1.40;;;11.90;99.90;;;;;;5093420;28;20219;-77
2022/10/20 13:21:32;;;;;;;4.07;1.50;;;12.00;99.90;;;;;;5085389;28;20216;-77
2022/10/20 13:24:26;;;;;;;4.88;1.83;;;12.00;99.90;;;;;;5083975;28;20212;-76
2022/10/20 13:27:16;;;;;;;3.28;1.92;;;12.00;99.90;;;;;;5096849;27;20220;-77
2022/10/20 13:30:08;;;;;;;4.53;1.70;;;11.90;99.90;;;;;;5084606;28;20235;-77
2022/10/20 13:33:04;;;;;;;3.63;1.90;;;12.00;99.90;;;;;;5098350;28;20238;-77
2022/10/20 13:36:20;;;;;;;3.28;2.00;;;12.00;99.90;;;;;;5086773;28;20975;-77
2022/10/20 13:39:16;;;;;;;5.82;2.15;;;11.90;99.90;;;;;;5085143;28;20216;-77
2022/10/20 13:42:17;;;;;;;8.70;2.15;;;11.90;99.90;;;;;;5078983;28;20219;-76
2022/10/20 13:45:16;;;;;;;3.25;1.95;;;12.00;99.90;;;;;;5084541;28;20219;-75
2022/10/20 13:48:18;;;;;;;7.07;1.95;;;12.00;99.90;;;;;;5084037;28;20551;-76
2022/10/20 13:51:13;;;;;;;4.63;1.60;;;12.00;99.90;;;;;;5091412;28;20223;-78
2022/10/20 13:54:07;;;;;;;4.20;1.55;;;12.00;99.90;;;;;;5073751;28;20216;-76
2022/10/20 13:56:57;;;;;;;4.97;2.35;;;12.00;99.90;;;;;;5084003;28;20219;-76
2022/10/20 13:59:59;;;;;;;3.20;2.00;;;11.90;99.90;;;;;;5088222;28;20223;-76
2022/10/20 14:02:59;;;;;;;4.95;1.92;;;12.00;99.90;;;;;;5089956;28;20238;-76
2022/10/20 14:05:48;;;;;;;6.38;2.15;;;12.00;99.90;;;;;;5080316;28;20231;-76
2022/10/20 14:08:43;;;;;;;4.32;2.35;;;12.00;99.90;;;;;;5085255;28;20231;-76
2022/10/20 14:11:32;;;;;;;7.75;2.38;;;12.00;99.90;;;;;;5081373;28;20223;-77
2022/10/20 14:14:25;;;;;;;7.07;2.30;;;12.00;99.90;;;;;;5068774;28;20226;-77
2022/10/20 14:17:20;;;;;;;4.30;2.35;;;12.00;99.90;;;;;;5083948;28;20226;-76
2022/10/20 14:20:18;;;;;;;4.80;2.20;;;11.90;99.90;;;;;;5077956;28;20225;-77
2022/10/20 14:23:10;;;;;;;3.60;2.20;;;11.90;99.90;;;;;;5072225;28;20300;-78
2022/10/20 14:25:59;;;;;;;3.40;1.90;;;11.90;99.90;;;;;;5104635;28;20230;-76
2022/10/20 14:28:51;;;;;;;6.40;2.38;;;11.90;99.90;;;;;;5086562;28;20225;-79
2022/10/20 14:31:41;;;;;;;3.92;2.10;;;11.80;99.90;;;;;;5072779;28;20227;-76
2022/10/20 14:34:34;;;;;;;5.78;2.40;;;11.80;99.90;;;;;;5079022;28;20220;-76
2022/10/20 14:37:30;;;;;;;7.25;2.95;;;11.90;99.90;;;;;;5088610;28;20246;-76
2022/10/20 14:40:22;;;;;;;7.63;3.55;;;11.80;99.90;;;;;;5107473;28;20356;-78
2022/10/20 14:43:16;;;;;;;5.20;2.67;;;11.80;99.90;;;;;;5105622;28;20264;-76
2022/10/20 14:46:08;;;;;;;5.28;2.83;;;11.80;99.90;;;;;;5092114;28;20260;-76
2022/10/20 14:48:59;;;;;;;8.27;3.38;;;11.80;99.90;;;;;;5092002;28;20211;-76
2022/10/20 14:51:56;;;;;;;7.50;2.75;;;11.80;99.90;;;;;;5086555;28;20241;-76
2022/10/20 14:54:45;;;;;;;5.40;2.58;;;11.80;99.90;;;;;;5086036;28;20275;-78
2022/10/20 14:57:44;;;;;;;7.22;3.10;;;11.80;99.90;;;;;;5073809;28;20219;-76
2022/10/20 15:00:36;;;;;;;7.20;3.08;;;11.80;99.90;;;;;;5084443;28;20224;-76